Flight Track Log - Related Links

Times and Time Zones

All times are in EDT time to prevent confusion due to time zone crossing. See the N606FT flight status page for this flight to view local times or setup timezone preferences in your user account.

Time Position Orientation Groundspeed Altitude Reporting Facility
EDT Latitude Longitude Course Direction KTS km/h feet Rate Location/Type
Sat 16:24:44 28.3167 -80.7833 155° Southeast 80 148 3.100  Level Orlando TRACON
Sat 16:25:50 28.3000 -80.8000 221° Southwest 89 164 3.600 263 Climbing Orlando TRACON
Sat 16:26:38 28.2667 -80.8000 180° South 115 212 3.600  Level Orlando TRACON
Sat 16:28:42 28.2069 -80.8028 182° South 104 193 3.600  Level Miami Center
Sat 16:29:42 28.1775 -80.8042 182° South 104 193 3.600  Level Miami Center
Sat 16:30:00 28.5886 -81.5503 155° Southeast  Level Estimated
Sat 16:30:42 28.1442 -80.8031 178° South 109 201 3.600  Level Miami Center
Sat 16:31:42 28.1169 -80.8044 183° South 109 201 3.500 -50 Descending Miami Center
Sat 16:32:42 28.0900 -80.8033 178° South 101 187 3.500  Level Miami Center
Sat 16:33:42 28.0586 -80.8000 175° South 101 187 3.500  Level Miami Center
Sat 16:34:42 28.0317 -80.7967 174° South 101 187 3.500 50 Level Miami Center
Sat 16:35:42 28.0047 -80.7886 165° South 101 187 3.600 50 Climbing Miami Center
Sat 16:36:42 27.9819 -80.7856 173° South 101 187 3.600  Level Miami Center
Sat 16:37:42 27.9531 -80.7753 163° South 106 196 3.600  Level Miami Center
Sat 16:38:42 27.9261 -80.7647 161° South 106 196 3.600 -50 Level Miami Center
Sat 16:39:42 27.8994 -80.7522 157° South 106 196 3.500  Descending Miami Center
Sat 16:40:42 27.8808 -80.7397 149° Southeast 106 196 3.600  Climbing Miami Center
Sat 16:41:42 27.8519 -80.7272 159° South 101 187 3.500 -50 Descending Miami Center
Sat 16:42:42 27.8253 -80.7169 161° South 101 187 3.500 50 Level Miami Center
Sat 16:43:42 27.7961 -80.7133 174° South 101 187 3.600  Climbing Miami Center
Sat 16:44:42 27.7708 -80.7197 193° South 101 187 3.500  Descending Miami Center
Sat 16:45:42 27.7456 -80.7258 192° South 106 196 3.600 50 Climbing Miami Center
Sat 16:46:42 27.7206 -80.7297 188° South 106 196 3.600 -50 Level Miami Center
Sat 16:47:42 27.6911 -80.7358 190° South 106 196 3.500 -50 Descending Miami Center
Sat 16:48:42 27.6658 -80.7394 187° South 100 185 3.500  Level Miami Center
Sat 16:49:42 27.6389 -80.7386 178° South 100 185 3.500  Level Miami Center
Sat 16:50:42 27.6158 -80.7425 189° South 100 185 3.500  Level Miami Center
Sat 16:51:42 27.5906 -80.7464 188° South 100 185 3.500  Level Miami Center
Sat 16:52:42 27.5633 -80.7503 187° South 100 185 3.500 50 Level Miami Center
Sat 16:53:42 27.5358 -80.7586 195° South 105 195 3.600  Climbing Miami Center
Sat 16:54:42 27.5064 -80.7669 194° South 105 195 3.500 -100 Descending Miami Center

Login

Don't have an account? Register now (free) for customized features, flight alerts, and more!